• Join FlightAware (Why Join?)
  • Login
  • US Flag 
07:02PM EDT


 

Airport Tracker/Info


-or-


 

Live Flight TrackerFlight Track Log ✈ SKW6345 ✈ 30-Apr-2013 ✈ KCOD - KDEN

Flight Track Log - Related Links

Times and Time Zones

All times are in EDT time to prevent confusion due to time zone crossing. See the SKW6345 flight status page for this flight to view local times or setup timezone preferences in your user account.

Time Position Orientation Groundspeed Altitude Reporting Facility
EDT Latitude Longitude Course Direction KTS MPH feet Rate Location/Type
09:17AM 44.6147 -108.9628 157° South 225 259 9,000  Level Salt Lake Center
09:18AM 44.5672 -108.9056 139° Southeast 268 308 11,100 2,340 Climbing Salt Lake Center
09:19AM 44.2836 -108.7613 154° Southeast  Level FlightAware Approximate
09:19AM 44.4822 -108.8714 164° South 282 325 13,800  Level Salt Lake Center
09:20AM 44.1749 -108.6975 158° South  Level FlightAware Approximate
09:20AM 44.4011 -108.8367 163° South 306 352 16,000  Level Salt Lake Center
09:21AM 44.0652 -108.6370 159° South  Level FlightAware Approximate
09:21AM 44.3192 -108.7911 158° South 323 372 17,500  Level Salt Lake Center
09:22AM 43.9555 -108.5768 157° South  Level FlightAware Approximate
09:22AM 44.2153 -108.7308 157° South 352 405 19,400  Level Salt Lake Center
09:23AM 43.8468 -108.5133 157° South  Level FlightAware Approximate
09:24AM 44.1225 -108.6769 157° South 369 425 20,900  Level Salt Lake Center
09:25AM 44.0153 -108.6144 157° South 374 430 22,800 1,380 Climbing Salt Lake Center
09:26AM 43.9228 -108.5631 158° South 376 433 23,800 960 Climbing Salt Lake Center
09:27AM 43.8264 -108.5078 158° South 390 449 24,800 960 Climbing Salt Lake Center
09:28AM 43.7111 -108.4433 158° South 400 460 25,800 780 Climbing Salt Lake Center
09:29AM 43.6100 -108.3850 157° South 409 471 26,500 780 Climbing Salt Lake Center
09:30AM 43.5072 -108.3286 158° South 414 476 27,400 840 Climbing Salt Lake Center
09:31AM 43.3944 -108.2297 147° Southeast 432 497 28,300 660 Climbing Salt Lake Center
09:32AM 43.2986 -108.1289 143° Southeast 448 516 28,800 660 Climbing Salt Lake Center
09:33AM 43.2025 -108.0269 142° Southeast 455 524 29,700 960 Climbing Salt Lake Center
09:34AM 43.0936 -107.9114 142° Southeast 445 512 30,800 600 Climbing Salt Lake Center
09:35AM 42.9992 -107.8131 143° Southeast 446 513 31,000 60 Climbing Salt Lake Center
09:36AM 42.8956 -107.7022 142° Southeast 451 519 31,000  Level Salt Lake Center
09:37AM 42.8019 -107.6050 143° Southeast 444 511 31,000  Level Salt Lake Center
09:38AM 42.6936 -107.4922 143° Southeast 438 504 31,000  Level Salt Lake Center
09:39AM 42.6006 -107.3961 143° Southeast 438 504 31,000  Level Salt Lake Center
09:40AM 42.5072 -107.3014 143° Southeast 437 503 31,000  Level Salt Lake Center
09:41AM 42.3992 -107.1906 143° Southeast 435 501 31,000  Level Salt Lake Center
09:42AM 42.3061 -107.0947 143° Southeast 437 503 31,000  Level Salt Lake Center
09:43AM 42.1969 -106.9856 143° Southeast 437 503 31,000  Level Salt Lake Center
09:44AM 42.1033 -106.8900 143° Southeast 440 506 31,000  Level Salt Lake Center
09:45AM 42.0094 -106.7950 143° Southeast 441 507 31,000  Level Salt Lake Center
09:45AM 41.9614 -106.7461 143° Southeast 445 512 31,000  Level Denver Center
09:46AM 41.8683 -106.6508 143° Southeast 441 507 31,000  Level Denver Center
09:47AM 41.7731 -106.5583 144° Southeast 441 507 31,000  Level Denver Center
09:48AM 41.6689 -106.4528 143° Southeast 437 503 31,000  Level Denver Center
09:49AM 41.5750 -106.3614 144° Southeast 437 503 31,000  Level Denver Center
09:50AM 41.4617 -106.2519 144° Southeast 447 514 31,000  Level Denver Center
09:51AM 41.3561 -106.2017 160° South 422 486 31,000  Level Denver Center
09:53AM 41.2303 -106.1472 162° South 425 489 31,000  Level Denver Center
09:54AM 41.1200 -106.0447 145° Southeast 451 519 31,000  Level Denver Center
09:55AM 41.0183 -105.9128 136° Southeast 457 526 31,000 -660 Level Denver Center
09:56AM 40.9331 -105.8019 136° Southeast 459 528 29,700 -2,220 Descending Denver Center
09:57AM 40.8422 -105.6847 136° Southeast 454 522 26,500 -3,180 Descending Denver Center
09:58AM 40.7528 -105.5725 136° Southeast 443 510 23,300 -3,120 Descending Denver Center
10:00AM 40.5817 -105.3522 136° Southeast 420 483 17,100 -2,100 Descending Denver Center
10:01AM 40.5033 -105.2511 136° Southeast 396 456 17,000 -420 Descending Denver Center
10:02AM 40.3997 -105.1642 147° Southeast 402 463 16,300 -1,200 Descending Denver Center
10:03AM 40.3325 -105.0508 128° Southeast 385 443 14,600 -1,380 Descending Denver Center
10:04AM 40.3244 -104.9197 95° East 366 421 13,500 -1,260 Descending Denver Center
10:05AM 40.2661 -104.8553 140° Southeast 289 333 12,100 -1,560 Descending Denver Center
10:06AM 40.1919 -104.8114 156° South 273 314 10,400 -1,620 Descending Denver Center
10:07AM 40.1228 -104.7714 156° South 273 314 8,900 -1,260 Descending Denver Center
10:08AM 40.0600 -104.7339 155° Southeast 253 291 7,900 -960 Descending Denver Center
10:09AM 40.0022 -104.7011 157° South 231 266 7,000 -900 Descending Denver Center